sensor_id;sensor_type;location;lat;lon;timestamp;temperature;humidity
46091;DHT22;31826;53.572;10.170;2024-03-29T00:01:48;7.30;99.90
46091;DHT22;31826;53.572;10.170;2024-03-29T00:04:14;7.30;99.90
46091;DHT22;31826;53.572;10.170;2024-03-29T00:06:39;7.20;99.90
46091;DHT22;31826;53.572;10.170;2024-03-29T00:09:05;7.20;99.90
46091;DHT22;31826;53.572;10.170;2024-03-29T00:11:31;7.20;99.90
46091;DHT22;31826;53.572;10.170;2024-03-29T00:13:57;7.20;99.90
46091;DHT22;31826;53.572;10.170;2024-03-29T00:16:23;7.20;99.90
46091;DHT22;31826;53.572;10.170;2024-03-29T00:18:51;7.10;99.90
46091;DHT22;31826;53.572;10.170;2024-03-29T00:21:17;7.10;99.90
46091;DHT22;31826;53.572;10.170;2024-03-29T00:23:43;7.10;99.90
46091;DHT22;31826;53.572;10.170;2024-03-29T00:26:13;6.90;99.90
46091;DHT22;31826;53.572;10.170;2024-03-29T00:28:39;6.80;99.90
46091;DHT22;31826;53.572;10.170;2024-03-29T00:31:04;6.80;99.90
46091;DHT22;31826;53.572;10.170;2024-03-29T00:33:30;6.80;99.90
46091;DHT22;31826;53.572;10.170;2024-03-29T00:35:56;6.70;99.90
46091;DHT22;31826;53.572;10.170;2024-03-29T00:38:22;6.70;99.90
46091;DHT22;31826;53.572;10.170;2024-03-29T00:40:47;6.70;99.90
46091;DHT22;31826;53.572;10.170;2024-03-29T00:43:13;6.70;99.90
46091;DHT22;31826;53.572;10.170;2024-03-29T00:45:40;6.60;99.90
46091;DHT22;31826;53.572;10.170;2024-03-29T00:48:06;6.60;99.90
46091;DHT22;31826;53.572;10.170;2024-03-29T00:50:32;6.60;99.90
46091;DHT22;31826;53.572;10.170;2024-03-29T00:52:57;6.60;99.90
46091;DHT22;31826;53.572;10.170;2024-03-29T00:55:23;6.60;99.90
46091;DHT22;31826;53.572;10.170;2024-03-29T00:57:49;6.50;99.90
46091;DHT22;31826;53.572;10.170;2024-03-29T01:00:14;6.50;99.90
46091;DHT22;31826;53.572;10.170;2024-03-29T01:02:40;6.50;99.90
46091;DHT22;31826;53.572;10.170;2024-03-29T01:05:06;6.50;99.90
46091;DHT22;31826;53.572;10.170;2024-03-29T01:07:32;6.50;99.90
46091;DHT22;31826;53.572;10.170;2024-03-29T01:09:58;6.50;99.90
46091;DHT22;31826;53.572;10.170;2024-03-29T01:12:24;6.50;99.90
46091;DHT22;31826;53.572;10.170;2024-03-29T01:14:49;6.40;99.90
46091;DHT22;31826;53.572;10.170;2024-03-29T01:17:16;6.40;99.90
46091;DHT22;31826;53.572;10.170;2024-03-29T01:19:41;6.30;99.90
46091;DHT22;31826;53.572;10.170;2024-03-29T01:22:07;6.30;99.90
46091;DHT22;31826;53.572;10.170;2024-03-29T01:24:33;6.30;99.90
46091;DHT22;31826;53.572;10.170;2024-03-29T01:26:59;6.30;99.90
46091;DHT22;31826;53.572;10.170;2024-03-29T01:29:25;6.30;99.90
46091;DHT22;31826;53.572;10.170;2024-03-29T01:31:51;6.30;99.90
46091;DHT22;31826;53.572;10.170;2024-03-29T01:34:16;6.30;99.90
46091;DHT22;31826;53.572;10.170;2024-03-29T01:36:43;6.40;99.90
46091;DHT22;31826;53.572;10.170;2024-03-29T01:39:08;6.40;99.90
46091;DHT22;31826;53.572;10.170;2024-03-29T01:41:36;6.30;99.90
46091;DHT22;31826;53.572;10.170;2024-03-29T01:44:02;6.30;99.90
46091;DHT22;31826;53.572;10.170;2024-03-29T01:46:27;6.30;99.90
46091;DHT22;31826;53.572;10.170;2024-03-29T01:48:54;6.30;99.90
46091;DHT22;31826;53.572;10.170;2024-03-29T01:51:21;6.30;99.90
46091;DHT22;31826;53.572;10.170;2024-03-29T01:53:52;6.30;99.90
46091;DHT22;31826;53.572;10.170;2024-03-29T01:56:21;6.30;99.90
46091;DHT22;31826;53.572;10.170;2024-03-29T01:58:49;6.30;99.90
46091;DHT22;31826;53.572;10.170;2024-03-29T02:01:15;6.30;99.90
46091;DHT22;31826;53.572;10.170;2024-03-29T02:03:42;6.20;99.90
46091;DHT22;31826;53.572;10.170;2024-03-29T02:06:08;6.20;99.90
46091;DHT22;31826;53.572;10.170;2024-03-29T02:08:36;6.20;99.90
46091;DHT22;31826;53.572;10.170;2024-03-29T02:11:02;6.20;99.90
46091;DHT22;31826;53.572;10.170;2024-03-29T02:13:28;6.10;99.90
46091;DHT22;31826;53.572;10.170;2024-03-29T02:15:54;6.10;99.90
46091;DHT22;31826;53.572;10.170;2024-03-29T02:18:19;6.10;99.90
46091;DHT22;31826;53.572;10.170;2024-03-29T02:20:45;6.10;99.90
46091;DHT22;31826;53.572;10.170;2024-03-29T02:23:19;6.10;99.90
46091;DHT22;31826;53.572;10.170;2024-03-29T02:25:45;6.10;99.90
46091;DHT22;31826;53.572;10.170;2024-03-29T02:28:12;6.00;99.90
46091;DHT22;31826;53.572;10.170;2024-03-29T02:30:38;6.10;99.90
46091;DHT22;31826;53.572;10.170;2024-03-29T02:33:04;6.00;99.90
46091;DHT22;31826;53.572;10.170;2024-03-29T02:35:29;6.00;99.90
46091;DHT22;31826;53.572;10.170;2024-03-29T02:37:56;5.90;99.90
46091;DHT22;31826;53.572;10.170;2024-03-29T02:40:22;5.90;99.90
46091;DHT22;31826;53.572;10.170;2024-03-29T02:42:48;5.90;99.90
46091;DHT22;31826;53.572;10.170;2024-03-29T02:45:14;5.90;99.90
46091;DHT22;31826;53.572;10.170;2024-03-29T02:47:40;5.80;99.90
46091;DHT22;31826;53.572;10.170;2024-03-29T02:50:08;5.80;99.90
46091;DHT22;31826;53.572;10.170;2024-03-29T02:52:34;5.80;99.90
46091;DHT22;31826;53.572;10.170;2024-03-29T02:54:59;5.70;99.90
46091;DHT22;31826;53.572;10.170;2024-03-29T02:57:25;5.70;99.90
46091;DHT22;31826;53.572;10.170;2024-03-29T02:59:51;5.70;99.90
46091;DHT22;31826;53.572;10.170;2024-03-29T03:02:16;5.70;99.90
46091;DHT22;31826;53.572;10.170;2024-03-29T03:04:42;5.70;99.90
46091;DHT22;31826;53.572;10.170;2024-03-29T03:07:08;5.70;99.90
46091;DHT22;31826;53.572;10.170;2024-03-29T03:09:52;5.70;99.90
46091;DHT22;31826;53.572;10.170;2024-03-29T03:12:36;5.60;99.90
46091;DHT22;31826;53.572;10.170;2024-03-29T03:15:02;5.60;99.90
46091;DHT22;31826;53.572;10.170;2024-03-29T03:17:28;5.60;99.90
46091;DHT22;31826;53.572;10.170;2024-03-29T03:19:54;5.60;99.90
46091;DHT22;31826;53.572;10.170;2024-03-29T03:22:20;5.60;99.90
46091;DHT22;31826;53.572;10.170;2024-03-29T03:24:45;5.60;99.90
46091;DHT22;31826;53.572;10.170;2024-03-29T03:27:11;5.60;99.90
46091;DHT22;31826;53.572;10.170;2024-03-29T03:29:37;5.50;99.90
46091;DHT22;31826;53.572;10.170;2024-03-29T03:32:03;5.50;99.90
46091;DHT22;31826;53.572;10.170;2024-03-29T03:34:29;5.60;99.90
46091;DHT22;31826;53.572;10.170;2024-03-29T03:36:55;5.50;99.90
46091;DHT22;31826;53.572;10.170;2024-03-29T03:39:21;5.50;99.90
46091;DHT22;31826;53.572;10.170;2024-03-29T03:41:47;5.60;99.90
46091;DHT22;31826;53.572;10.170;2024-03-29T03:44:13;5.50;99.90
46091;DHT22;31826;53.572;10.170;2024-03-29T03:46:39;5.60;99.90
46091;DHT22;31826;53.572;10.170;2024-03-29T03:49:04;5.50;99.90
46091;DHT22;31826;53.572;10.170;2024-03-29T03:51:30;5.60;99.90
46091;DHT22;31826;53.572;10.170;2024-03-29T03:53:56;5.60;99.90
46091;DHT22;31826;53.572;10.170;2024-03-29T03:56:21;5.60;99.90
46091;DHT22;31826;53.572;10.170;2024-03-29T03:58:47;5.60;99.90
46091;DHT22;31826;53.572;10.170;2024-03-29T04:01:13;5.70;99.90
46091;DHT22;31826;53.572;10.170;2024-03-29T04:03:38;5.70;99.90
46091;DHT22;31826;53.572;10.170;2024-03-29T04:06:05;5.70;99.90
46091;DHT22;31826;53.572;10.170;2024-03-29T04:08:31;5.80;99.90
46091;DHT22;31826;53.572;10.170;2024-03-29T04:10:57;5.80;99.90
46091;DHT22;31826;53.572;10.170;2024-03-29T04:13:23;5.80;99.90
46091;DHT22;31826;53.572;10.170;2024-03-29T04:15:49;5.90;99.90
46091;DHT22;31826;53.572;10.170;2024-03-29T04:18:14;5.90;99.90
46091;DHT22;31826;53.572;10.170;2024-03-29T04:20:40;5.80;99.90
46091;DHT22;31826;53.572;10.170;2024-03-29T04:23:06;5.80;99.90
46091;DHT22;31826;53.572;10.170;2024-03-29T04:25:32;5.80;99.90
46091;DHT22;31826;53.572;10.170;2024-03-29T04:27:58;5.80;99.90
46091;DHT22;31826;53.572;10.170;2024-03-29T04:30:24;5.90;99.90
46091;DHT22;31826;53.572;10.170;2024-03-29T04:32:50;5.80;99.90
46091;DHT22;31826;53.572;10.170;2024-03-29T04:35:16;5.90;99.90
46091;DHT22;31826;53.572;10.170;2024-03-29T04:37:41;5.90;99.90
46091;DHT22;31826;53.572;10.170;2024-03-29T04:40:07;5.90;99.90
46091;DHT22;31826;53.572;10.170;2024-03-29T04:42:33;5.80;99.90
46091;DHT22;31826;53.572;10.170;2024-03-29T04:44:59;5.90;99.90
46091;DHT22;31826;53.572;10.170;2024-03-29T04:47:26;5.90;99.90
46091;DHT22;31826;53.572;10.170;2024-03-29T04:49:51;5.80;99.90
46091;DHT22;31826;53.572;10.170;2024-03-29T04:52:17;5.90;99.90
46091;DHT22;31826;53.572;10.170;2024-03-29T04:54:43;5.90;99.90
46091;DHT22;31826;53.572;10.170;2024-03-29T04:57:09;6.00;99.90
46091;DHT22;31826;53.572;10.170;2024-03-29T04:59:35;5.90;99.90
46091;DHT22;31826;53.572;10.170;2024-03-29T05:02:01;6.00;99.90
46091;DHT22;31826;53.572;10.170;2024-03-29T05:04:27;6.00;99.90
46091;DHT22;31826;53.572;10.170;2024-03-29T05:06:54;6.00;99.90
46091;DHT22;31826;53.572;10.170;2024-03-29T05:09:20;6.00;99.90
46091;DHT22;31826;53.572;10.170;2024-03-29T05:11:46;6.10;99.90
46091;DHT22;31826;53.572;10.170;2024-03-29T05:14:15;6.00;99.90
46091;DHT22;31826;53.572;10.170;2024-03-29T05:16:46;6.00;99.90
46091;DHT22;31826;53.572;10.170;2024-03-29T05:19:13;6.10;99.90
46091;DHT22;31826;53.572;10.170;2024-03-29T05:21:39;6.00;99.90
46091;DHT22;31826;53.572;10.170;2024-03-29T05:24:05;6.10;99.90
46091;DHT22;31826;53.572;10.170;2024-03-29T05:26:31;6.10;99.90
46091;DHT22;31826;53.572;10.170;2024-03-29T05:28:57;6.10;99.90
46091;DHT22;31826;53.572;10.170;2024-03-29T05:31:23;6.10;99.90
46091;DHT22;31826;53.572;10.170;2024-03-29T05:33:50;6.20;99.90
46091;DHT22;31826;53.572;10.170;2024-03-29T05:36:16;6.20;99.90
46091;DHT22;31826;53.572;10.170;2024-03-29T05:38:42;6.30;99.90
46091;DHT22;31826;53.572;10.170;2024-03-29T05:41:07;6.30;99.90
46091;DHT22;31826;53.572;10.170;2024-03-29T05:43:33;6.30;99.90
46091;DHT22;31826;53.572;10.170;2024-03-29T05:45:59;6.30;99.90
46091;DHT22;31826;53.572;10.170;2024-03-29T05:48:28;6.30;99.90
46091;DHT22;31826;53.572;10.170;2024-03-29T05:50:54;6.30;99.90
46091;DHT22;31826;53.572;10.170;2024-03-29T05:53:20;6.40;99.90
46091;DHT22;31826;53.572;10.170;2024-03-29T05:55:46;6.40;99.90
46091;DHT22;31826;53.572;10.170;2024-03-29T05:58:11;6.40;99.90
46091;DHT22;31826;53.572;10.170;2024-03-29T06:00:42;6.40;99.90
46091;DHT22;31826;53.572;10.170;2024-03-29T06:03:08;6.40;99.90
46091;DHT22;31826;53.572;10.170;2024-03-29T06:05:33;6.40;99.90
46091;DHT22;31826;53.572;10.170;2024-03-29T06:07:59;6.50;99.90
46091;DHT22;31826;53.572;10.170;2024-03-29T06:10:25;6.50;99.90
46091;DHT22;31826;53.572;10.170;2024-03-29T06:12:50;6.50;99.90
46091;DHT22;31826;53.572;10.170;2024-03-29T06:15:16;6.50;99.90
46091;DHT22;31826;53.572;10.170;2024-03-29T06:18:00;6.60;99.90
46091;DHT22;31826;53.572;10.170;2024-03-29T06:20:26;6.60;99.90
46091;DHT22;31826;53.572;10.170;2024-03-29T06:22:51;6.60;99.90
46091;DHT22;31826;53.572;10.170;2024-03-29T06:25:17;6.60;99.90
46091;DHT22;31826;53.572;10.170;2024-03-29T06:27:43;6.60;99.90
46091;DHT22;31826;53.572;10.170;2024-03-29T06:30:13;6.70;99.90
46091;DHT22;31826;53.572;10.170;2024-03-29T06:32:38;6.70;99.90
46091;DHT22;31826;53.572;10.170;2024-03-29T06:35:04;6.80;99.90
46091;DHT22;31826;53.572;10.170;2024-03-29T06:37:31;6.80;99.90
46091;DHT22;31826;53.572;10.170;2024-03-29T06:39:57;6.80;99.90
46091;DHT22;31826;53.572;10.170;2024-03-29T06:42:23;6.80;99.90
46091;DHT22;31826;53.572;10.170;2024-03-29T06:44:48;6.80;99.90
46091;DHT22;31826;53.572;10.170;2024-03-29T06:47:15;6.80;99.90
46091;DHT22;31826;53.572;10.170;2024-03-29T06:49:40;6.90;99.90
46091;DHT22;31826;53.572;10.170;2024-03-29T06:52:06;6.90;99.90
46091;DHT22;31826;53.572;10.170;2024-03-29T06:54:32;6.90;99.90
46091;DHT22;31826;53.572;10.170;2024-03-29T06:56:59;7.00;99.90
46091;DHT22;31826;53.572;10.170;2024-03-29T06:59:25;7.00;99.90
46091;DHT22;31826;53.572;10.170;2024-03-29T07:01:51;7.00;99.90
46091;DHT22;31826;53.572;10.170;2024-03-29T07:04:18;7.00;99.90
46091;DHT22;31826;53.572;10.170;2024-03-29T07:06:45;7.00;99.90
46091;DHT22;31826;53.572;10.170;2024-03-29T07:09:16;7.10;99.90
46091;DHT22;31826;53.572;10.170;2024-03-29T07:11:42;7.10;99.90
46091;DHT22;31826;53.572;10.170;2024-03-29T07:14:08;7.20;99.90
46091;DHT22;31826;53.572;10.170;2024-03-29T07:16:33;7.20;99.90
46091;DHT22;31826;53.572;10.170;2024-03-29T07:18:59;7.20;99.90
46091;DHT22;31826;53.572;10.170;2024-03-29T07:21:25;7.40;99.90
46091;DHT22;31826;53.572;10.170;2024-03-29T07:23:50;7.30;99.90
46091;DHT22;31826;53.572;10.170;2024-03-29T07:26:16;7.40;99.90
46091;DHT22;31826;53.572;10.170;2024-03-29T07:28:42;7.50;99.90
46091;DHT22;31826;53.572;10.170;2024-03-29T07:31:08;7.60;99.90
46091;DHT22;31826;53.572;10.170;2024-03-29T07:33:34;7.60;99.90
46091;DHT22;31826;53.572;10.170;2024-03-29T07:36:00;7.60;99.90
46091;DHT22;31826;53.572;10.170;2024-03-29T07:38:25;7.70;99.90
46091;DHT22;31826;53.572;10.170;2024-03-29T07:40:52;7.80;99.90
46091;DHT22;31826;53.572;10.170;2024-03-29T07:43:22;7.90;99.90
46091;DHT22;31826;53.572;10.170;2024-03-29T07:45:47;7.90;99.90
46091;DHT22;31826;53.572;10.170;2024-03-29T07:48:15;8.00;99.90
46091;DHT22;31826;53.572;10.170;2024-03-29T07:50:42;8.00;99.90
46091;DHT22;31826;53.572;10.170;2024-03-29T07:53:08;8.10;99.90
46091;DHT22;31826;53.572;10.170;2024-03-29T07:55:38;8.10;99.90
46091;DHT22;31826;53.572;10.170;2024-03-29T07:58:04;8.10;99.90
46091;DHT22;31826;53.572;10.170;2024-03-29T08:00:34;8.20;99.90
46091;DHT22;31826;53.572;10.170;2024-03-29T08:03:00;8.30;99.90
46091;DHT22;31826;53.572;10.170;2024-03-29T08:05:27;8.30;99.90
46091;DHT22;31826;53.572;10.170;2024-03-29T08:07:53;8.50;99.90
46091;DHT22;31826;53.572;10.170;2024-03-29T08:10:18;8.40;99.90
46091;DHT22;31826;53.572;10.170;2024-03-29T08:12:44;8.50;99.90
46091;DHT22;31826;53.572;10.170;2024-03-29T08:15:10;8.60;99.90
46091;DHT22;31826;53.572;10.170;2024-03-29T08:17:36;8.60;99.90
46091;DHT22;31826;53.572;10.170;2024-03-29T08:20:03;8.60;99.90
46091;DHT22;31826;53.572;10.170;2024-03-29T08:22:28;8.70;99.90
46091;DHT22;31826;53.572;10.170;2024-03-29T08:24:55;8.70;99.90
46091;DHT22;31826;53.572;10.170;2024-03-29T08:27:20;8.70;99.90
46091;DHT22;31826;53.572;10.170;2024-03-29T08:29:46;8.70;99.90
46091;DHT22;31826;53.572;10.170;2024-03-29T08:32:14;8.70;99.90
46091;DHT22;31826;53.572;10.170;2024-03-29T08:34:40;8.70;99.90
46091;DHT22;31826;53.572;10.170;2024-03-29T08:37:06;8.60;99.90
46091;DHT22;31826;53.572;10.170;2024-03-29T08:39:32;8.60;99.90
46091;DHT22;31826;53.572;10.170;2024-03-29T08:41:58;8.70;99.90
46091;DHT22;31826;53.572;10.170;2024-03-29T08:44:25;8.60;99.90
46091;DHT22;31826;53.572;10.170;2024-03-29T08:46:51;8.50;99.90
46091;DHT22;31826;53.572;10.170;2024-03-29T08:49:17;8.60;99.90
46091;DHT22;31826;53.572;10.170;2024-03-29T08:51:43;8.50;99.90
46091;DHT22;31826;53.572;10.170;2024-03-29T08:54:09;8.40;99.90
46091;DHT22;31826;53.572;10.170;2024-03-29T08:56:34;8.40;99.90
46091;DHT22;31826;53.572;10.170;2024-03-29T08:59:03;8.40;99.90
46091;DHT22;31826;53.572;10.170;2024-03-29T09:01:33;8.40;99.90
46091;DHT22;31826;53.572;10.170;2024-03-29T09:03:59;8.50;99.90
46091;DHT22;31826;53.572;10.170;2024-03-29T09:06:24;8.40;99.90
46091;DHT22;31826;53.572;10.170;2024-03-29T09:08:50;8.40;99.90
46091;DHT22;31826;53.572;10.170;2024-03-29T09:11:16;8.50;99.90
46091;DHT22;31826;53.572;10.170;2024-03-29T09:13:41;8.50;99.90
46091;DHT22;31826;53.572;10.170;2024-03-29T09:16:07;8.60;99.90
46091;DHT22;31826;53.572;10.170;2024-03-29T09:18:33;8.60;99.90
46091;DHT22;31826;53.572;10.170;2024-03-29T09:20:59;8.60;99.90
46091;DHT22;31826;53.572;10.170;2024-03-29T09:23:26;8.60;99.90
46091;DHT22;31826;53.572;10.170;2024-03-29T09:25:53;8.60;99.90
46091;DHT22;31826;53.572;10.170;2024-03-29T09:28:19;8.60;99.90
46091;DHT22;31826;53.572;10.170;2024-03-29T09:30:47;8.60;99.90
46091;DHT22;31826;53.572;10.170;2024-03-29T09:33:13;8.60;99.90
46091;DHT22;31826;53.572;10.170;2024-03-29T09:35:39;8.60;99.90
46091;DHT22;31826;53.572;10.170;2024-03-29T09:38:04;8.70;99.90
46091;DHT22;31826;53.572;10.170;2024-03-29T09:40:30;8.60;99.90
46091;DHT22;31826;53.572;10.170;2024-03-29T09:43:00;8.60;99.90
46091;DHT22;31826;53.572;10.170;2024-03-29T09:45:34;8.60;99.90
46091;DHT22;31826;53.572;10.170;2024-03-29T09:48:03;8.50;99.90
46091;DHT22;31826;53.572;10.170;2024-03-29T09:50:33;8.60;99.90
46091;DHT22;31826;53.572;10.170;2024-03-29T09:53:01;8.70;99.90
46091;DHT22;31826;53.572;10.170;2024-03-29T09:55:28;8.70;99.90
46091;DHT22;31826;53.572;10.170;2024-03-29T09:57:55;8.70;99.90
46091;DHT22;31826;53.572;10.170;2024-03-29T10:00:21;8.70;99.90
46091;DHT22;31826;53.572;10.170;2024-03-29T10:02:48;8.70;99.90
46091;DHT22;31826;53.572;10.170;2024-03-29T10:05:14;8.70;99.90
46091;DHT22;31826;53.572;10.170;2024-03-29T10:07:41;8.70;99.90
46091;DHT22;31826;53.572;10.170;2024-03-29T10:10:08;8.80;99.90
46091;DHT22;31826;53.572;10.170;2024-03-29T10:12:34;8.80;99.90
46091;DHT22;31826;53.572;10.170;2024-03-29T10:14:59;8.70;99.90
46091;DHT22;31826;53.572;10.170;2024-03-29T10:17:34;8.70;99.90
46091;DHT22;31826;53.572;10.170;2024-03-29T10:20:04;8.80;99.90
46091;DHT22;31826;53.572;10.170;2024-03-29T10:22:35;8.70;99.90
46091;DHT22;31826;53.572;10.170;2024-03-29T10:25:01;8.70;99.90
46091;DHT22;31826;53.572;10.170;2024-03-29T10:27:27;8.80;99.90
46091;DHT22;31826;53.572;10.170;2024-03-29T10:29:55;8.70;99.90
46091;DHT22;31826;53.572;10.170;2024-03-29T10:32:22;8.70;99.90
46091;DHT22;31826;53.572;10.170;2024-03-29T10:34:48;8.80;99.90
46091;DHT22;31826;53.572;10.170;2024-03-29T10:37:14;8.70;99.90
46091;DHT22;31826;53.572;10.170;2024-03-29T10:39:44;8.80;99.90
46091;DHT22;31826;53.572;10.170;2024-03-29T10:42:11;8.80;99.90
46091;DHT22;31826;53.572;10.170;2024-03-29T10:44:39;8.80;99.90
46091;DHT22;31826;53.572;10.170;2024-03-29T10:47:06;8.90;99.90
46091;DHT22;31826;53.572;10.170;2024-03-29T10:49:33;8.80;99.90
46091;DHT22;31826;53.572;10.170;2024-03-29T10:52:00;8.90;99.90
46091;DHT22;31826;53.572;10.170;2024-03-29T10:54:28;9.00;99.90
46091;DHT22;31826;53.572;10.170;2024-03-29T10:56:59;9.00;99.90
46091;DHT22;31826;53.572;10.170;2024-03-29T10:59:35;9.00;99.90
46091;DHT22;31826;53.572;10.170;2024-03-29T11:02:12;9.10;99.90
46091;DHT22;31826;53.572;10.170;2024-03-29T11:04:39;9.10;99.90
46091;DHT22;31826;53.572;10.170;2024-03-29T11:07:09;9.10;99.90
46091;DHT22;31826;53.572;10.170;2024-03-29T11:09:38;9.10;99.90
46091;DHT22;31826;53.572;10.170;2024-03-29T11:12:06;9.10;99.90
46091;DHT22;31826;53.572;10.170;2024-03-29T11:14:42;9.10;99.90
46091;DHT22;31826;53.572;10.170;2024-03-29T11:17:09;9.10;99.90
46091;DHT22;31826;53.572;10.170;2024-03-29T11:19:35;9.10;99.90
46091;DHT22;31826;53.572;10.170;2024-03-29T11:22:02;9.20;99.90
46091;DHT22;31826;53.572;10.170;2024-03-29T11:24:28;9.20;99.90
46091;DHT22;31826;53.572;10.170;2024-03-29T11:26:54;9.20;99.90
46091;DHT22;31826;53.572;10.170;2024-03-29T11:29:21;9.20;99.90
46091;DHT22;31826;53.572;10.170;2024-03-29T11:31:47;9.30;99.90
46091;DHT22;31826;53.572;10.170;2024-03-29T11:34:19;9.40;99.90
46091;DHT22;31826;53.572;10.170;2024-03-29T11:36:45;9.30;99.90
46091;DHT22;31826;53.572;10.170;2024-03-29T11:39:21;9.40;99.90
46091;DHT22;31826;53.572;10.170;2024-03-29T11:41:49;9.50;99.90
46091;DHT22;31826;53.572;10.170;2024-03-29T11:44:15;9.60;99.90
46091;DHT22;31826;53.572;10.170;2024-03-29T11:46:41;9.70;99.90
46091;DHT22;31826;53.572;10.170;2024-03-29T11:49:07;10.00;99.90
46091;DHT22;31826;53.572;10.170;2024-03-29T11:51:33;10.10;99.90
46091;DHT22;31826;53.572;10.170;2024-03-29T11:54:00;10.20;99.90
46091;DHT22;31826;53.572;10.170;2024-03-29T11:56:26;10.30;99.90
46091;DHT22;31826;53.572;10.170;2024-03-29T11:58:51;10.40;99.90
46091;DHT22;31826;53.572;10.170;2024-03-29T12:01:18;10.40;99.90
46091;DHT22;31826;53.572;10.170;2024-03-29T12:03:44;10.40;99.90
46091;DHT22;31826;53.572;10.170;2024-03-29T12:06:10;10.50;99.90
46091;DHT22;31826;53.572;10.170;2024-03-29T12:08:39;10.50;99.90
46091;DHT22;31826;53.572;10.170;2024-03-29T12:11:05;10.60;99.90
46091;DHT22;31826;53.572;10.170;2024-03-29T12:13:31;10.70;99.90
46091;DHT22;31826;53.572;10.170;2024-03-29T12:15:57;10.60;99.90
46091;DHT22;31826;53.572;10.170;2024-03-29T12:18:25;10.70;99.90
46091;DHT22;31826;53.572;10.170;2024-03-29T12:20:52;10.70;99.90
46091;DHT22;31826;53.572;10.170;2024-03-29T12:23:21;10.70;99.90
46091;DHT22;31826;53.572;10.170;2024-03-29T12:25:49;10.80;99.90
46091;DHT22;31826;53.572;10.170;2024-03-29T12:28:15;10.80;99.90
46091;DHT22;31826;53.572;10.170;2024-03-29T12:30:43;10.90;99.90
46091;DHT22;31826;53.572;10.170;2024-03-29T12:33:13;11.10;99.90
46091;DHT22;31826;53.572;10.170;2024-03-29T12:35:44;11.40;99.90
46091;DHT22;31826;53.572;10.170;2024-03-29T12:38:12;11.60;99.90
46091;DHT22;31826;53.572;10.170;2024-03-29T12:40:38;11.80;99.90
46091;DHT22;31826;53.572;10.170;2024-03-29T12:43:06;11.90;99.90
46091;DHT22;31826;53.572;10.170;2024-03-29T12:45:34;12.00;99.90
46091;DHT22;31826;53.572;10.170;2024-03-29T12:48:00;12.10;99.90
46091;DHT22;31826;53.572;10.170;2024-03-29T12:50:27;12.10;99.90
46091;DHT22;31826;53.572;10.170;2024-03-29T12:52:57;12.00;99.90
46091;DHT22;31826;53.572;10.170;2024-03-29T12:55:25;12.00;99.90
46091;DHT22;31826;53.572;10.170;2024-03-29T12:57:54;11.80;99.90
46091;DHT22;31826;53.572;10.170;2024-03-29T13:00:20;11.80;99.90
46091;DHT22;31826;53.572;10.170;2024-03-29T13:02:46;11.80;99.90
46091;DHT22;31826;53.572;10.170;2024-03-29T13:05:11;11.90;99.90
46091;DHT22;31826;53.572;10.170;2024-03-29T13:07:37;12.00;99.90
46091;DHT22;31826;53.572;10.170;2024-03-29T13:10:04;11.90;99.90
46091;DHT22;31826;53.572;10.170;2024-03-29T13:12:42;12.00;99.90
46091;DHT22;31826;53.572;10.170;2024-03-29T13:15:19;12.00;99.90
46091;DHT22;31826;53.572;10.170;2024-03-29T13:17:46;12.00;99.90
46091;DHT22;31826;53.572;10.170;2024-03-29T13:20:13;11.90;99.90
46091;DHT22;31826;53.572;10.170;2024-03-29T13:22:39;12.00;99.90
46091;DHT22;31826;53.572;10.170;2024-03-29T13:25:08;12.00;99.90
46091;DHT22;31826;53.572;10.170;2024-03-29T13:27:35;12.10;99.90
46091;DHT22;31826;53.572;10.170;2024-03-29T13:30:01;12.10;99.90
46091;DHT22;31826;53.572;10.170;2024-03-29T13:32:26;12.10;99.90
46091;DHT22;31826;53.572;10.170;2024-03-29T13:34:55;12.10;99.90
46091;DHT22;31826;53.572;10.170;2024-03-29T13:37:20;12.10;99.90
46091;DHT22;31826;53.572;10.170;2024-03-29T13:39:46;12.10;99.90
46091;DHT22;31826;53.572;10.170;2024-03-29T13:42:12;12.00;99.90
46091;DHT22;31826;53.572;10.170;2024-03-29T13:44:38;12.00;99.90
46091;DHT22;31826;53.572;10.170;2024-03-29T13:47:03;11.90;99.90
46091;DHT22;31826;53.572;10.170;2024-03-29T13:49:30;11.90;99.90
46091;DHT22;31826;53.572;10.170;2024-03-29T13:51:57;11.90;99.90
46091;DHT22;31826;53.572;10.170;2024-03-29T13:54:23;11.90;99.90
46091;DHT22;31826;53.572;10.170;2024-03-29T13:56:49;12.00;99.90
46091;DHT22;31826;53.572;10.170;2024-03-29T13:59:15;12.00;99.90
46091;DHT22;31826;53.572;10.170;2024-03-29T14:01:40;12.00;99.90
46091;DHT22;31826;53.572;10.170;2024-03-29T14:04:06;12.10;99.90
46091;DHT22;31826;53.572;10.170;2024-03-29T14:06:32;12.20;99.90
46091;DHT22;31826;53.572;10.170;2024-03-29T14:08:58;12.30;99.90
46091;DHT22;31826;53.572;10.170;2024-03-29T14:11:24;12.30;99.90
46091;DHT22;31826;53.572;10.170;2024-03-29T14:13:49;12.30;99.90
46091;DHT22;31826;53.572;10.170;2024-03-29T14:16:21;12.30;99.90
46091;DHT22;31826;53.572;10.170;2024-03-29T14:18:47;12.40;99.90
46091;DHT22;31826;53.572;10.170;2024-03-29T14:21:13;12.50;99.90
46091;DHT22;31826;53.572;10.170;2024-03-29T14:23:38;12.40;99.90
46091;DHT22;31826;53.572;10.170;2024-03-29T14:26:04;12.40;99.90
46091;DHT22;31826;53.572;10.170;2024-03-29T14:28:30;12.40;99.90
46091;DHT22;31826;53.572;10.170;2024-03-29T14:30:55;12.40;99.90
46091;DHT22;31826;53.572;10.170;2024-03-29T14:33:21;12.30;99.90
46091;DHT22;31826;53.572;10.170;2024-03-29T14:35:47;12.40;99.90
46091;DHT22;31826;53.572;10.170;2024-03-29T14:38:13;12.60;99.90
46091;DHT22;31826;53.572;10.170;2024-03-29T14:40:39;13.00;99.90
46091;DHT22;31826;53.572;10.170;2024-03-29T14:43:05;13.30;99.90
46091;DHT22;31826;53.572;10.170;2024-03-29T14:45:32;13.50;99.90
46091;DHT22;31826;53.572;10.170;2024-03-29T14:47:58;13.30;99.90
46091;DHT22;31826;53.572;10.170;2024-03-29T14:50:24;12.90;99.90
46091;DHT22;31826;53.572;10.170;2024-03-29T14:52:50;12.70;99.90
46091;DHT22;31826;53.572;10.170;2024-03-29T14:55:15;12.80;99.90
46091;DHT22;31826;53.572;10.170;2024-03-29T14:57:41;12.90;99.90
46091;DHT22;31826;53.572;10.170;2024-03-29T15:00:07;12.90;99.90
46091;DHT22;31826;53.572;10.170;2024-03-29T15:02:34;12.80;99.90
46091;DHT22;31826;53.572;10.170;2024-03-29T15:05:00;13.00;99.90
46091;DHT22;31826;53.572;10.170;2024-03-29T15:07:26;13.10;99.90
46091;DHT22;31826;53.572;10.170;2024-03-29T15:09:51;13.00;99.90
46091;DHT22;31826;53.572;10.170;2024-03-29T15:12:17;12.80;99.90
46091;DHT22;31826;53.572;10.170;2024-03-29T15:14:43;12.70;99.90
46091;DHT22;31826;53.572;10.170;2024-03-29T15:17:09;12.60;99.90
46091;DHT22;31826;53.572;10.170;2024-03-29T15:19:34;12.70;99.90
46091;DHT22;31826;53.572;10.170;2024-03-29T15:22:00;12.60;99.90
46091;DHT22;31826;53.572;10.170;2024-03-29T15:24:25;12.70;99.90